Time;durP1;ratioP1;P1;durP2;ratioP2;P2;SDS_P1;SDS_P2;PMS_P1;PMS_P2;Temp;Humidity;BMP_temperature;BMP_pressure;BME280_temperature;BME280_humidity;BME280_pressure;Samples;Min_cycle;Max_cycle;Signal;HPM_P1;HPM_P2
2021/01/14 00:01:28;;;;;;;23.58;15.80;;;26.50;2048.00;;;;;;5037227;28;20017;-86
2021/01/14 00:03:54;;;;;;;36.83;21.67;;;51.20;2073.60;;;;;;5034333;28;20021;-88
2021/01/14 00:06:20;;;;;;;31.88;19.92;;;26.00;2048.00;;;;;;5036616;28;20115;-87
2021/01/14 00:08:47;;;;;;;42.65;22.80;;;26.50;2073.60;;;;;;5019605;28;20038;-87
2021/01/14 00:11:13;;;;;;;28.77;16.42;;;26.50;2048.00;;;;;;4997368;28;20025;-87
2021/01/14 00:13:40;;;;;;;29.35;16.83;;;26.50;2048.00;;;;;;4996244;28;20026;-86
2021/01/14 00:16:08;;;;;;;30.80;15.75;;;26.50;2048.00;;;;;;5005143;28;20477;-89
2021/01/14 00:18:34;;;;;;;37.30;21.05;;;26.50;2073.60;;;;;;5016609;28;20029;-88
2021/01/14 00:21:00;;;;;;;46.63;27.20;;;26.50;2048.00;;;;;;5016684;28;20072;-86
2021/01/14 00:23:26;;;;;;;46.88;26.63;;;26.50;2048.00;;;;;;5020327;28;20030;-88
2021/01/14 00:25:53;;;;;;;52.28;30.38;;;51.30;2099.20;;;;;;5020705;28;20096;-87
2021/01/14 00:28:19;;;;;;;41.90;24.40;;;51.20;2099.20;;;;;;5020627;28;20099;-88
2021/01/14 00:30:45;;;;;;;43.55;25.05;;;51.20;2073.60;;;;;;5020752;28;20045;-88
2021/01/14 00:33:11;;;;;;;46.50;26.38;;;26.50;2073.60;;;;;;5020423;28;20029;-88
2021/01/14 00:35:37;;;;;;;46.72;26.98;;;26.50;2022.40;;;;;;5020291;28;20026;-88
2021/01/14 00:38:04;;;;;;;53.13;31.58;;;51.20;2099.20;;;;;;5020624;28;20045;-89
2021/01/14 00:40:33;;;;;;;59.72;35.28;;;51.20;2099.20;;;;;;5020364;28;20037;-89
2021/01/14 00:43:04;;;;;;;60.17;33.72;;;26.50;2150.40;;;;;;5051585;28;20051;-89
2021/01/14 00:45:31;;;;;;;50.75;24.88;;;26.40;2176.00;;;;;;5059749;28;20024;-87
2021/01/14 00:47:58;;;;;;;49.10;27.63;;;26.30;2176.00;;;;;;5059982;28;20056;-89
2021/01/14 00:50:25;;;;;;;42.92;25.10;;;26.20;2176.00;;;;;;5060080;28;20024;-87
2021/01/14 00:52:52;;;;;;;42.55;27.05;;;26.30;2176.00;;;;;;5059841;28;20067;-87
2021/01/14 00:55:19;;;;;;;54.95;33.28;;;26.40;2176.00;;;;;;5059961;28;20024;-87
2021/01/14 00:57:45;;;;;;;75.85;43.58;;;26.40;2201.60;;;;;;5059791;28;20028;-88
2021/01/14 01:00:17;;;;;;;78.18;45.85;;;26.40;2201.60;;;;;;5059697;28;20024;-87
2021/01/14 01:02:44;;;;;;;96.95;52.72;;;26.30;2201.60;;;;;;5060553;28;20348;-88
2021/01/14 01:05:11;;;;;;;74.32;45.15;;;26.20;2201.60;;;;;;5060541;28;20024;-89
2021/01/14 01:07:38;;;;;;;109.53;58.22;;;26.00;2201.60;;;;;;5065896;28;20048;-87
2021/01/14 01:10:07;;;;;;;116.82;67.18;;;26.00;2201.60;;;;;;5066604;28;20024;-88
2021/01/14 01:12:33;;;;;;;66.22;40.38;;;26.00;2201.60;;;;;;5061671;28;20029;-88
2021/01/14 01:14:59;;;;;;;58.63;35.25;;;25.90;2201.60;;;;;;5059812;28;20017;-90
2021/01/14 01:17:31;;;;;;;72.45;39.65;;;25.90;2201.60;;;;;;5059216;28;20055;-89
2021/01/14 01:19:57;;;;;;;84.18;46.85;;;25.80;2201.60;;;;;;5059662;28;20055;-89
2021/01/14 01:22:23;;;;;;;80.70;45.08;;;25.70;2201.60;;;;;;5059530;28;20544;-89
2021/01/14 01:24:50;;;;;;;78.05;42.30;;;25.60;2201.60;;;;;;5059305;28;20475;-89
2021/01/14 01:27:16;;;;;;;65.68;36.55;;;0.90;2201.60;;;;;;5059389;28;20025;-88
2021/01/14 01:29:42;;;;;;;98.50;51.55;;;0.90;2201.60;;;;;;5059183;28;20032;-87
2021/01/14 01:32:08;;;;;;;149.45;70.47;;;0.90;2201.60;;;;;;5057981;28;20028;-90
2021/01/14 01:34:34;;;;;;;195.50;99.20;;;0.80;2201.60;;;;;;5058541;28;20021;-88
2021/01/14 01:37:00;;;;;;;151.40;77.07;;;26.20;2201.60;;;;;;5059379;28;20036;-88
2021/01/14 01:39:26;;;;;;;172.25;95.40;;;0.80;2201.60;;;;;;5059128;28;20016;-88
2021/01/14 01:41:58;;;;;;;147.07;79.20;;;0.30;2201.60;;;;;;5058879;28;20045;-89
2021/01/14 01:44:25;;;;;;;152.73;80.78;;;0.70;2201.60;;;;;;5059429;28;20029;-89
2021/01/14 01:47:00;;;;;;;137.30;67.68;;;0.60;2201.60;;;;;;5058180;28;20032;-89
2021/01/14 01:49:27;;;;;;;113.50;58.33;;;0.70;2201.60;;;;;;5058886;28;20067;-89
2021/01/14 01:51:53;;;;;;;85.55;49.90;;;0.90;2201.60;;;;;;5058769;28;20017;-89
2021/01/14 01:54:20;;;;;;;95.03;52.42;;;0.70;2201.60;;;;;;5058913;28;20024;-89
2021/01/14 01:56:48;;;;;;;88.32;47.55;;;0.90;2201.60;;;;;;5059436;28;20044;-90
2021/01/14 01:59:17;;;;;;;95.68;52.03;;;0.80;2201.60;;;;;;5059057;28;20029;-90
2021/01/14 02:01:43;;;;;;;62.50;34.30;;;0.80;2201.60;;;;;;5059056;28;20020;-88
2021/01/14 02:04:09;;;;;;;49.70;27.95;;;0.70;2201.60;;;;;;5058625;28;20035;-89
2021/01/14 02:09:56;;;;;;;46.28;26.35;;;0.50;2201.60;;;;;;5051254;28;20086;-88
2021/01/14 02:12:37;;;;;;;54.17;29.60;;;0.60;2201.60;;;;;;5041801;28;20467;-88
2021/01/14 02:15:06;;;;;;;86.88;45.10;;;0.50;2201.60;;;;;;5057948;28;20078;-88
2021/01/14 02:41:20;;;;;;;54.63;29.13;;;0.10;2201.60;;;;;;5099351;28;20050;-88
2021/01/14 05:54:23;;;;;;;99.15;53.25;;;38.90;2201.60;;;;;;4822251;23;21208;31
2021/01/14 06:08:12;;;;;;;163.52;72.30;;;39.20;2201.60;;;;;;4901060;29;20051;-80
2021/01/14 08:36:30;;;;;;;64.30;38.50;;;13.10;2201.60;;;;;;4877841;29;20066;-81
2021/01/14 08:52:57;;;;;;;67.28;43.88;;;0.10;2201.60;;;;;;4865774;29;20590;-82
2021/01/14 08:56:23;;;;;;;73.85;42.88;;;0.00;2201.60;;;;;;4760963;30;20111;-83
2021/01/14 08:59:56;;;;;;;57.28;36.42;;;0.20;2201.60;;;;;;4767013;30;20028;-84
2021/01/14 09:03:07;;;;;;;72.30;42.60;;;0.40;2201.60;;;;;;4700086;30;20040;-85
2021/01/14 09:06:13;;;;;;;72.45;40.92;;;0.50;2201.60;;;;;;4704851;30;20147;-83
2021/01/14 09:10:05;;;;;;;71.78;45.83;;;0.60;2201.60;;;;;;4775141;30;20067;-86
2021/01/14 09:16:02;;;;;;;43.08;30.23;;;0.70;2201.60;;;;;;4772542;30;20042;-85
2021/01/14 09:35:21;;;;;;;55.05;35.25;;;0.80;2201.60;;;;;;4956695;29;20051;-86
2021/01/14 09:42:40;;;;;;;37.90;22.52;;;0.90;2201.60;;;;;;4955489;29;20034;-87
2021/01/14 09:45:11;;;;;;;33.95;22.52;;;0.90;2201.60;;;;;;4948288;29;20039;-88
2021/01/14 09:47:38;;;;;;;140.88;86.13;;;0.90;2201.60;;;;;;4942039;29;20086;-89
2021/01/14 09:50:05;;;;;;;73.72;50.60;;;0.70;2176.00;;;;;;4942590;29;20058;-87
2021/01/14 09:52:31;;;;;;;53.63;31.42;;;0.70;2201.60;;;;;;4940943;29;20031;-88
2021/01/14 09:54:59;;;;;;;38.88;24.02;;;0.80;2201.60;;;;;;4941093;29;20110;-88
2021/01/14 09:57:27;;;;;;;36.50;21.50;;;25.60;2201.60;;;;;;4940908;29;20034;-89
2021/01/14 09:59:55;;;;;;;39.15;23.88;;;25.60;2150.40;;;;;;4941286;29;20114;-87
2021/01/14 10:02:28;;;;;;;95.13;54.03;;;25.60;2099.20;;;;;;4940287;29;20111;-82
2021/01/14 10:05:33;;;;;;;57.15;33.78;;;0.90;2150.40;;;;;;4940071;29;20019;-87
2021/01/14 10:08:14;;;;;;;97.50;55.03;;;25.60;2176.00;;;;;;4952874;29;20032;-86
2021/01/14 10:10:41;;;;;;;73.32;44.90;;;25.70;2124.80;;;;;;4939878;29;20019;-85
2021/01/14 10:13:39;;;;;;;56.58;36.42;;;26.00;2099.20;;;;;;4937636;29;20035;-89
2021/01/14 10:16:25;;;;;;;65.03;39.85;;;25.70;2099.20;;;;;;4947021;28;20030;-88
2021/01/14 10:28:18;;;;;;;72.60;43.17;;;25.80;2073.60;;;;;;4960336;28;20073;-88
2021/01/14 10:31:13;;;;;;;69.60;41.85;;;25.80;2073.60;;;;;;4943169;28;20419;-88
2021/01/14 10:37:57;;;;;;;62.72;40.67;;;26.00;2073.60;;;;;;4964502;28;20075;-87
2021/01/14 10:41:28;;;;;;;57.92;35.67;;;26.00;2073.60;;;;;;4954833;29;20046;-89
2021/01/14 10:44:14;;;;;;;85.50;57.17;;;25.70;2124.80;;;;;;4956565;29;20063;-86
2021/01/14 10:46:44;;;;;;;120.20;83.47;;;25.80;2201.60;;;;;;4944723;28;20019;-86
2021/01/14 10:49:11;;;;;;;112.35;72.35;;;25.70;2201.60;;;;;;4941558;28;20039;-85
2021/01/14 10:51:40;;;;;;;84.07;49.22;;;25.70;2201.60;;;;;;4940047;29;20019;-87
2021/01/14 10:54:26;;;;;;;66.85;42.42;;;25.80;2201.60;;;;;;4934869;29;20467;-89
2021/01/14 10:56:54;;;;;;;47.17;32.70;;;25.70;2201.60;;;;;;4917798;29;20019;-88
2021/01/14 11:02:45;;;;;;;62.97;41.45;;;0.90;2201.60;;;;;;4940656;29;20048;-86
2021/01/14 11:05:19;;;;;;;67.90;46.50;;;0.80;2201.60;;;;;;4891081;29;20253;-89
2021/01/14 11:13:51;;;;;;;55.58;40.03;;;0.70;2201.60;;;;;;5048658;23;20122;-87
2021/01/14 11:16:37;;;;;;;92.38;59.33;;;0.60;2201.60;;;;;;4975496;28;20031;-86
2021/01/14 11:19:05;;;;;;;78.55;58.30;;;0.70;2201.60;;;;;;4959512;28;20027;-89
2021/01/14 11:21:34;;;;;;;79.97;60.72;;;0.70;2201.60;;;;;;4976485;28;20026;-88
2021/01/14 11:24:01;;;;;;;82.05;64.38;;;0.80;2201.60;;;;;;4959806;28;20026;-87
2021/01/14 11:26:30;;;;;;;93.97;62.17;;;0.70;2201.60;;;;;;4943598;28;20038;-90
2021/01/14 11:28:57;;;;;;;66.38;47.38;;;0.70;2201.60;;;;;;4959498;28;20023;-88
2021/01/14 11:31:50;;;;;;;89.38;61.45;;;0.70;2201.60;;;;;;4958896;28;20035;-89
2021/01/14 11:34:18;;;;;;;90.70;62.58;;;0.80;2201.60;;;;;;4958869;28;20051;-89
2021/01/14 11:36:45;;;;;;;74.85;51.90;;;0.80;2201.60;;;;;;4943512;28;20550;-90
2021/01/14 11:39:12;;;;;;;91.72;55.90;;;0.80;2201.60;;;;;;4959470;28;20541;-88
2021/01/14 11:41:40;;;;;;;68.30;44.30;;;0.80;2201.60;;;;;;4959618;28;20089;-89
2021/01/14 11:44:07;;;;;;;73.40;49.22;;;0.80;2201.60;;;;;;4959933;28;20026;-91
2021/01/14 11:46:33;;;;;;;75.43;49.10;;;0.90;2201.60;;;;;;4943745;28;20519;-89
2021/01/14 11:48:59;;;;;;;62.00;41.38;;;0.80;2201.60;;;;;;4959123;28;20027;-89
2021/01/14 11:51:36;;;;;;;74.35;46.05;;;0.80;2201.60;;;;;;4959826;28;20019;-88
2021/01/14 11:54:06;;;;;;;91.03;55.78;;;0.90;2201.60;;;;;;4960285;28;20101;-89
2021/01/14 11:57:00;;;;;;;135.75;97.50;;;0.90;2201.60;;;;;;4959611;28;20050;-87
2021/01/14 12:03:06;;;;;;;76.00;48.15;;;0.90;2201.60;;;;;;4976911;28;20057;-90
2021/01/14 12:05:42;;;;;;;136.88;83.53;;;0.80;2201.60;;;;;;4976735;28;20387;-88
2021/01/14 12:08:16;;;;;;;79.80;50.40;;;0.80;2201.60;;;;;;4954916;28;20062;-88
2021/01/14 12:11:27;;;;;;;97.00;52.05;;;0.80;2201.60;;;;;;4966184;28;20126;-88
2021/01/14 12:13:53;;;;;;;75.10;46.33;;;0.80;2201.60;;;;;;4946450;29;20220;-88
2021/01/14 12:16:24;;;;;;;86.55;49.90;;;0.90;2201.60;;;;;;4937458;29;20046;-90
2021/01/14 12:18:52;;;;;;;99.80;60.05;;;0.80;2201.60;;;;;;4958466;29;20039;-89
2021/01/14 12:21:18;;;;;;;90.43;61.17;;;0.80;2201.60;;;;;;4957038;29;20179;-87
2021/01/14 12:30:41;;;;;;;80.00;57.88;;;0.80;2201.60;;;;;;4994664;23;20134;-87
2021/01/14 12:33:08;;;;;;;121.50;82.95;;;0.80;2201.60;;;;;;4980633;28;20035;-87
2021/01/14 12:35:42;;;;;;;132.88;88.05;;;0.80;2201.60;;;;;;4961338;28;20034;-89
2021/01/14 12:38:10;;;;;;;95.45;74.00;;;0.80;2201.60;;;;;;4978846;28;20065;-88
2021/01/14 12:40:37;;;;;;;94.15;62.88;;;0.70;2201.60;;;;;;4947037;28;20027;-91
2021/01/14 12:43:14;;;;;;;177.60;110.53;;;0.80;2201.60;;;;;;4946409;28;20085;-88
2021/01/14 12:45:41;;;;;;;157.15;92.47;;;0.80;2201.60;;;;;;4963662;28;20035;-88
2021/01/14 12:48:07;;;;;;;135.88;82.20;;;0.80;2201.60;;;;;;4963463;28;20027;-88
2021/01/14 12:53:29;;;;;;;72.40;48.92;;;25.70;2201.60;;;;;;4965562;28;20038;-87
2021/01/14 12:58:42;;;;;;;81.30;53.47;;;0.90;2201.60;;;;;;4979203;28;20074;-89
2021/01/14 13:01:08;;;;;;;99.93;62.22;;;0.90;2201.60;;;;;;4930267;28;20023;-86
2021/01/14 13:03:35;;;;;;;98.07;70.00;;;0.90;2201.60;;;;;;4960939;28;20026;-87
2021/01/14 13:06:01;;;;;;;141.23;85.32;;;0.80;2201.60;;;;;;4961358;28;20077;-86
2021/01/14 13:08:27;;;;;;;92.80;65.53;;;0.70;2201.60;;;;;;4961069;28;20026;-87
2021/01/14 13:11:17;;;;;;;84.30;52.40;;;0.70;2201.60;;;;;;4975122;28;20032;-88
2021/01/14 13:13:44;;;;;;;98.13;63.17;;;0.80;2201.60;;;;;;4960271;28;20039;-87
2021/01/14 13:16:42;;;;;;;109.03;76.32;;;0.80;2201.60;;;;;;4941903;28;20533;-86
2021/01/14 13:19:10;;;;;;;121.43;77.07;;;0.80;2201.60;;;;;;4955643;29;20479;-87
2021/01/14 13:21:41;;;;;;;131.38;82.25;;;0.90;2201.60;;;;;;4941479;29;20392;-89
2021/01/14 13:24:09;;;;;;;139.40;95.07;;;25.60;2201.60;;;;;;4941939;29;20495;-90
2021/01/14 13:26:35;;;;;;;133.18;102.72;;;0.90;2201.60;;;;;;4941849;29;20474;-87
2021/01/14 13:29:03;;;;;;;101.40;68.38;;;25.60;2201.60;;;;;;4940607;29;20031;-89
2021/01/14 13:31:42;;;;;;;100.07;63.03;;;25.70;2201.60;;;;;;4941637;29;20062;-90
2021/01/14 13:34:09;;;;;;;98.20;59.22;;;25.70;2201.60;;;;;;4942487;29;20053;-90
2021/01/14 13:36:36;;;;;;;95.20;60.08;;;25.80;2201.60;;;;;;4941451;29;20030;-90
2021/01/14 13:39:04;;;;;;;53.90;33.65;;;25.70;2201.60;;;;;;4942240;28;20395;-90
2021/01/14 13:41:30;;;;;;;48.10;33.53;;;0.80;2201.60;;;;;;4954997;28;20467;-88
2021/01/14 13:43:56;;;;;;;124.57;80.57;;;0.70;2201.60;;;;;;4958088;28;20053;-84
2021/01/14 13:46:26;;;;;;;116.22;82.85;;;0.70;2201.60;;;;;;4958881;28;20450;-87
2021/01/14 13:49:01;;;;;;;132.05;94.20;;;0.70;2201.60;;;;;;4960036;28;20026;-82
2021/01/14 13:51:32;;;;;;;117.85;82.72;;;0.80;2201.60;;;;;;4957695;28;20023;-81
2021/01/14 13:53:58;;;;;;;100.40;80.20;;;0.90;2201.60;;;;;;4957866;28;20026;-83
2021/01/14 13:56:24;;;;;;;124.90;95.15;;;0.80;2201.60;;;;;;4958967;28;20078;-83
2021/01/14 13:58:49;;;;;;;133.27;96.95;;;0.70;2201.60;;;;;;4958543;28;20026;-81
2021/01/14 14:01:27;;;;;;;125.90;95.75;;;0.80;2201.60;;;;;;4958723;28;20498;-82
2021/01/14 14:03:53;;;;;;;141.10;101.60;;;0.70;2201.60;;;;;;4959766;28;20070;-81
2021/01/14 14:06:54;;;;;;;88.55;62.22;;;0.60;2201.60;;;;;;4959480;28;20019;-85
2021/01/14 14:09:23;;;;;;;86.93;61.35;;;0.50;2201.60;;;;;;4977159;28;20077;-85
2021/01/14 14:11:52;;;;;;;97.07;66.13;;;0.60;2201.60;;;;;;4959587;28;20483;-84
2021/01/14 14:14:20;;;;;;;161.07;106.88;;;0.60;2201.60;;;;;;4958949;28;20050;-84
2021/01/14 14:16:47;;;;;;;147.35;79.72;;;0.70;2201.60;;;;;;4943758;28;20027;-82
2021/01/14 14:19:13;;;;;;;128.27;68.10;;;0.70;2201.60;;;;;;4959340;28;20038;-84
2021/01/14 14:21:40;;;;;;;145.85;82.82;;;0.60;2201.60;;;;;;4958902;28;20081;-77
2021/01/14 14:24:06;;;;;;;149.95;87.68;;;0.80;2201.60;;;;;;4951289;28;20034;-79
2021/01/14 14:26:34;;;;;;;149.27;92.55;;;25.80;2201.60;;;;;;4958153;28;20078;-77
2021/01/14 14:29:01;;;;;;;161.98;97.25;;;0.90;2201.60;;;;;;4958990;28;20119;-86
2021/01/14 14:31:27;;;;;;;135.43;89.78;;;0.90;2201.60;;;;;;4958943;28;20049;-85
2021/01/14 14:33:54;;;;;;;102.63;67.93;;;0.80;2201.60;;;;;;4958905;28;20035;-87
2021/01/14 14:36:45;;;;;;;152.68;99.13;;;0.70;2201.60;;;;;;4959368;28;20037;-86
2021/01/14 14:39:11;;;;;;;139.05;87.72;;;0.90;2201.60;;;;;;4975718;28;20034;-86
2021/01/14 14:41:37;;;;;;;153.65;89.07;;;25.60;2201.60;;;;;;4958871;28;20082;-86
2021/01/14 14:44:03;;;;;;;132.77;88.13;;;25.60;2201.60;;;;;;4959264;28;20391;-87
2021/01/14 14:46:29;;;;;;;127.22;84.10;;;0.90;2201.60;;;;;;4959271;28;20027;-87
2021/01/14 14:48:56;;;;;;;119.90;78.38;;;0.90;2201.60;;;;;;4959211;28;20027;-86
2021/01/14 14:51:24;;;;;;;133.02;82.10;;;0.90;2201.60;;;;;;4943980;28;20378;-87
2021/01/14 14:53:50;;;;;;;170.95;110.18;;;0.90;2201.60;;;;;;4959201;28;20478;-87
2021/01/14 14:56:18;;;;;;;188.60;122.65;;;0.90;2201.60;;;;;;4959036;28;20026;-87
2021/01/14 14:58:44;;;;;;;161.07;114.47;;;0.80;2201.60;;;;;;4958994;28;20027;-87
2021/01/14 15:01:11;;;;;;;209.20;158.32;;;25.80;2201.60;;;;;;4976659;28;20101;-86
2021/01/14 15:03:37;;;;;;;157.63;114.15;;;0.80;2201.60;;;;;;4958676;28;20489;-87
2021/01/14 15:06:04;;;;;;;216.65;133.32;;;0.80;2201.60;;;;;;4958944;28;20030;-87
2021/01/14 15:08:30;;;;;;;175.05;112.80;;;0.90;2201.60;;;;;;4958835;28;20056;-86
2021/01/14 15:10:56;;;;;;;122.90;81.90;;;0.90;2201.60;;;;;;4958400;28;20027;-88
2021/01/14 15:13:23;;;;;;;130.27;86.20;;;0.90;2201.60;;;;;;4958982;28;20027;-86
2021/01/14 15:15:49;;;;;;;164.52;94.07;;;25.70;2201.60;;;;;;4958609;28;20117;-85
2021/01/14 15:18:18;;;;;;;159.13;95.40;;;0.90;2201.60;;;;;;4975985;28;20023;-85
2021/01/14 15:20:44;;;;;;;154.65;96.15;;;25.60;2201.60;;;;;;4959908;28;20029;-85
2021/01/14 15:23:11;;;;;;;114.93;74.70;;;25.60;2201.60;;;;;;4953311;28;20077;-87
2021/01/14 15:25:37;;;;;;;170.55;105.57;;;0.80;2201.60;;;;;;4949196;28;20031;-85
2021/01/14 15:28:03;;;;;;;225.52;151.63;;;0.90;2201.60;;;;;;4943669;28;20023;-86
2021/01/14 15:30:29;;;;;;;217.60;143.07;;;0.90;2201.60;;;;;;4948515;28;20057;-87
2021/01/14 15:32:55;;;;;;;195.85;125.07;;;25.60;2201.60;;;;;;4950398;28;20031;-87
2021/01/14 15:35:21;;;;;;;199.35;124.03;;;25.60;2201.60;;;;;;4945212;28;20019;-85
2021/01/14 15:37:48;;;;;;;173.38;111.45;;;0.90;2201.60;;;;;;4944759;28;20559;-83
2021/01/14 15:40:15;;;;;;;196.00;112.70;;;25.60;2201.60;;;;;;4942085;28;20106;-83
2021/01/14 15:42:42;;;;;;;228.10;143.65;;;25.60;2201.60;;;;;;4941893;28;20051;-87
2021/01/14 15:45:09;;;;;;;279.08;175.25;;;25.70;2201.60;;;;;;4943368;28;20023;-85
2021/01/14 15:47:35;;;;;;;271.65;175.50;;;25.70;2201.60;;;;;;4951808;28;20109;-86
2021/01/14 15:50:03;;;;;;;271.85;175.23;;;25.70;2201.60;;;;;;4941106;28;21784;-85
2021/01/14 15:52:29;;;;;;;182.40;116.47;;;25.70;2201.60;;;;;;4941280;28;20463;-87
2021/01/14 15:54:55;;;;;;;188.15;118.07;;;25.60;2201.60;;;;;;4944684;28;20035;-86
2021/01/14 15:57:20;;;;;;;236.35;150.23;;;25.60;2201.60;;;;;;4963705;28;20031;-84
2021/01/14 15:59:47;;;;;;;184.75;117.35;;;25.70;2201.60;;;;;;4941109;28;20030;-84
2021/01/14 16:02:15;;;;;;;258.77;154.63;;;25.80;2201.60;;;;;;4951576;28;20035;-86
2021/01/14 16:04:43;;;;;;;182.60;117.65;;;0.90;2201.60;;;;;;4956209;28;20030;-86
2021/01/14 16:07:09;;;;;;;261.77;151.55;;;25.70;2201.60;;;;;;4974635;28;20034;-85
2021/01/14 16:09:40;;;;;;;229.18;147.30;;;25.60;2201.60;;;;;;4958284;28;20023;-85
2021/01/14 16:12:06;;;;;;;263.20;155.25;;;0.90;2201.60;;;;;;4958305;28;20082;-85
2021/01/14 16:14:33;;;;;;;358.58;194.82;;;26.30;2201.60;;;;;;4958157;28;20066;-84
2021/01/14 16:16:59;;;;;;;309.92;176.57;;;0.90;2201.60;;;;;;4958064;28;20035;-87
2021/01/14 16:19:26;;;;;;;247.13;160.73;;;0.90;2201.60;;;;;;4957518;28;20023;-83
2021/01/14 16:21:53;;;;;;;239.25;146.95;;;25.60;2201.60;;;;;;4957910;28;20085;-85
2021/01/14 16:24:20;;;;;;;336.38;193.07;;;25.60;2201.60;;;;;;4957899;28;20390;-82
2021/01/14 16:26:47;;;;;;;326.25;181.43;;;25.60;2201.60;;;;;;4974718;28;20459;-78
2021/01/14 16:29:14;;;;;;;207.65;126.95;;;25.60;2201.60;;;;;;4957206;28;20399;-82
2021/01/14 16:31:53;;;;;;;194.55;124.05;;;25.60;2201.60;;;;;;4943251;29;20529;-80
2021/01/14 16:34:20;;;;;;;201.45;119.50;;;25.60;2201.60;;;;;;4937625;29;20479;-80
2021/01/14 16:36:47;;;;;;;119.65;79.53;;;25.60;2201.60;;;;;;4936856;29;20472;-80
2021/01/14 16:39:14;;;;;;;133.40;83.70;;;0.80;2201.60;;;;;;4938500;29;20035;-80
2021/01/14 16:41:40;;;;;;;102.82;74.28;;;0.90;2201.60;;;;;;4937675;29;20035;-84
2021/01/14 16:44:07;;;;;;;118.43;81.40;;;0.80;2201.60;;;;;;4938514;29;20121;-79
2021/01/14 16:46:34;;;;;;;141.23;92.60;;;0.70;2201.60;;;;;;4938110;29;20027;-83
2021/01/14 16:49:03;;;;;;;175.60;113.57;;;0.60;2201.60;;;;;;4937936;29;20035;-83
2021/01/14 16:51:29;;;;;;;272.15;171.05;;;0.70;2201.60;;;;;;4938218;29;20031;-82
2021/01/14 16:53:56;;;;;;;286.63;187.25;;;0.80;2201.60;;;;;;4937941;29;20027;-79
2021/01/14 16:56:22;;;;;;;301.67;191.75;;;0.80;2201.60;;;;;;4938260;29;20036;-81
2021/01/14 16:58:50;;;;;;;323.45;194.57;;;0.90;2201.60;;;;;;4937881;29;20386;-81
2021/01/14 17:01:18;;;;;;;317.63;192.55;;;25.60;2201.60;;;;;;4937816;29;20571;-81
2021/01/14 17:03:44;;;;;;;317.20;192.52;;;25.60;2201.60;;;;;;4932605;29;20033;-81
2021/01/14 17:06:17;;;;;;;346.92;215.98;;;25.60;2201.60;;;;;;4941610;29;20114;-79
2021/01/14 17:08:44;;;;;;;321.63;211.52;;;25.60;2201.60;;;;;;4952105;28;20554;-85
2021/01/14 17:11:18;;;;;;;344.92;230.18;;;25.60;2201.60;;;;;;4957773;28;20078;-82
2021/01/14 17:13:44;;;;;;;102.55;59.03;;;25.60;2201.60;;;;;;4960076;28;20086;-79
2021/01/14 17:16:11;;;;;;;103.65;71.55;;;25.60;2201.60;;;;;;4958720;28;20038;-80
2021/01/14 17:18:38;;;;;;;131.55;80.63;;;25.70;2201.60;;;;;;4960607;28;20497;-81
2021/01/14 17:21:11;;;;;;;143.77;84.35;;;0.80;2201.60;;;;;;4960536;28;20118;-79
2021/01/14 17:23:40;;;;;;;86.00;54.70;;;25.80;2201.60;;;;;;4953038;28;20027;-84
2021/01/14 17:26:07;;;;;;;45.53;31.05;;;25.80;2201.60;;;;;;4952456;28;20030;-83
2021/01/14 17:28:33;;;;;;;64.75;37.05;;;25.70;2201.60;;;;;;4967619;28;20031;-82
2021/01/14 17:30:59;;;;;;;48.63;32.05;;;25.60;2201.60;;;;;;4940903;29;20054;-84
2021/01/14 17:33:25;;;;;;;57.13;44.22;;;25.90;2201.60;;;;;;4940731;29;20031;-84
2021/01/14 17:35:51;;;;;;;51.33;37.65;;;25.90;2201.60;;;;;;4939543;29;20034;-83
2021/01/14 17:38:17;;;;;;;57.58;37.40;;;25.80;2201.60;;;;;;4941208;29;20115;-84
2021/01/14 17:40:43;;;;;;;68.32;45.35;;;0.90;2201.60;;;;;;4940864;29;20118;-82
2021/01/14 17:43:09;;;;;;;67.22;42.30;;;25.90;2201.60;;;;;;4940521;29;20031;-84
2021/01/14 17:45:35;;;;;;;77.03;47.08;;;25.90;2201.60;;;;;;4941078;29;20027;-86
2021/01/14 17:48:02;;;;;;;58.08;37.75;;;25.80;2201.60;;;;;;4940806;29;20034;-84
2021/01/14 17:50:28;;;;;;;61.25;39.38;;;25.90;2201.60;;;;;;4941151;29;20137;-83
2021/01/14 17:52:53;;;;;;;108.05;58.28;;;26.00;2201.60;;;;;;4940734;29;20547;-85
2021/01/14 17:55:19;;;;;;;146.32;68.30;;;25.90;2201.60;;;;;;4940500;29;20032;-84
2021/01/14 17:57:45;;;;;;;104.55;53.75;;;26.00;2201.60;;;;;;4941053;29;20023;-84
2021/01/14 18:00:12;;;;;;;121.10;68.35;;;26.00;2201.60;;;;;;4940820;29;20093;-83
2021/01/14 18:02:37;;;;;;;114.53;65.25;;;25.90;2201.60;;;;;;4940810;29;20027;-84
2021/01/14 18:05:04;;;;;;;213.75;106.00;;;26.00;2201.60;;;;;;4940694;29;20030;-84
2021/01/14 18:07:30;;;;;;;174.82;93.25;;;26.00;2201.60;;;;;;4940436;29;20121;-84
2021/01/14 18:09:56;;;;;;;242.85;126.65;;;26.00;2201.60;;;;;;4940617;29;20477;-84
2021/01/14 18:12:22;;;;;;;318.88;174.60;;;25.80;2201.60;;;;;;4940207;29;20030;-84
2021/01/14 18:14:48;;;;;;;315.52;181.68;;;25.80;2201.60;;;;;;4939885;29;20034;-84
2021/01/14 18:17:13;;;;;;;210.15;130.52;;;25.80;2201.60;;;;;;4940443;29;20043;-82
2021/01/14 18:19:39;;;;;;;218.02;138.65;;;25.80;2201.60;;;;;;4940091;29;20031;-85
2021/01/14 18:22:05;;;;;;;185.70;121.30;;;25.80;2201.60;;;;;;4940144;29;20023;-84
2021/01/14 18:24:31;;;;;;;185.10;119.35;;;25.90;2201.60;;;;;;4940145;29;20122;-82
2021/01/14 18:26:57;;;;;;;170.10;110.47;;;25.90;2201.60;;;;;;4939988;29;20030;-81
2021/01/14 18:29:23;;;;;;;234.65;142.68;;;26.00;2201.60;;;;;;4940229;29;20059;-83
2021/01/14 18:31:49;;;;;;;217.23;129.45;;;25.80;2201.60;;;;;;4940324;29;20038;-84
2021/01/14 18:34:16;;;;;;;102.93;67.75;;;25.80;2201.60;;;;;;4939820;29;20031;-81
2021/01/14 18:36:44;;;;;;;99.38;69.00;;;25.80;2201.60;;;;;;4940885;29;20118;-83
2021/01/14 18:39:11;;;;;;;66.60;41.10;;;25.80;2201.60;;;;;;4940577;29;20049;-84
2021/01/14 18:41:39;;;;;;;49.47;31.55;;;25.70;2201.60;;;;;;4943256;29;20119;-84
2021/01/14 18:44:05;;;;;;;51.38;31.73;;;25.70;2201.60;;;;;;4943831;29;20466;-81
2021/01/14 18:46:31;;;;;;;54.40;33.78;;;25.70;2201.60;;;;;;4940987;29;20031;-84
2021/01/14 18:48:57;;;;;;;107.13;62.90;;;25.70;2201.60;;;;;;4939549;29;20030;-82
2021/01/14 18:51:23;;;;;;;119.63;77.13;;;25.70;2201.60;;;;;;4939502;29;20163;-81
2021/01/14 18:53:49;;;;;;;113.15;70.95;;;25.70;2201.60;;;;;;4939295;29;20606;-80
2021/01/14 18:56:22;;;;;;;101.57;63.55;;;25.70;2201.60;;;;;;4939570;29;20126;-83
2021/01/14 18:58:48;;;;;;;107.03;66.50;;;25.60;2201.60;;;;;;4939411;29;20027;-83
2021/01/14 19:01:14;;;;;;;111.93;67.20;;;25.60;2201.60;;;;;;4939342;29;20367;-80
2021/01/14 19:03:40;;;;;;;59.83;37.45;;;25.60;2201.60;;;;;;4939296;29;20031;-79
2021/01/14 19:06:08;;;;;;;56.35;35.28;;;0.90;2201.60;;;;;;4939484;29;20028;-80
2021/01/14 19:08:34;;;;;;;55.15;36.88;;;25.60;2201.60;;;;;;4939164;29;20482;-79
2021/01/14 19:11:00;;;;;;;59.15;38.13;;;25.60;2201.60;;;;;;4939035;29;20023;-83
2021/01/14 19:13:26;;;;;;;34.10;23.98;;;0.90;2201.60;;;;;;4938246;29;20027;-80
2021/01/14 19:15:54;;;;;;;30.73;21.30;;;0.80;2201.60;;;;;;4938960;29;20031;-85
2021/01/14 19:18:20;;;;;;;22.48;15.50;;;0.80;2201.60;;;;;;4939139;29;20078;-82
2021/01/14 19:20:47;;;;;;;26.77;17.45;;;0.70;2201.60;;;;;;4938831;29;20027;-81
2021/01/14 19:23:14;;;;;;;27.17;18.90;;;0.80;2201.60;;;;;;4939353;29;20035;-81
2021/01/14 19:25:41;;;;;;;30.63;21.45;;;0.80;2201.60;;;;;;4938672;28;20483;-79
2021/01/14 19:28:07;;;;;;;33.08;24.25;;;0.80;2201.60;;;;;;4922487;29;20054;-80
2021/01/14 19:30:39;;;;;;;26.27;16.38;;;0.80;2201.60;;;;;;4938868;29;20073;-81
2021/01/14 19:33:08;;;;;;;21.05;15.35;;;0.90;2201.60;;;;;;4939478;29;20031;-80
2021/01/14 19:36:00;;;;;;;33.70;19.98;;;0.80;2201.60;;;;;;4938797;29;20043;-79
2021/01/14 19:38:28;;;;;;;41.63;26.93;;;0.70;2201.60;;;;;;4939059;29;20027;-81
2021/01/14 19:41:04;;;;;;;24.85;16.23;;;0.70;2201.60;;;;;;4938558;29;20491;-81
2021/01/14 19:43:53;;;;;;;32.92;22.05;;;0.70;2201.60;;;;;;4929754;29;20407;-81
2021/01/14 19:46:45;;;;;;;43.00;31.50;;;0.70;2201.60;;;;;;4922649;29;20032;-80
2021/01/14 19:49:16;;;;;;;47.47;33.90;;;0.70;2201.60;;;;;;4936839;29;20050;-78
2021/01/14 19:51:42;;;;;;;56.85;37.40;;;0.70;2201.60;;;;;;4938654;29;20114;-80
2021/01/14 19:54:09;;;;;;;90.15;48.88;;;0.70;2201.60;;;;;;4938274;29;20023;-77